Auburn University, Alabama
Current Conditions -  °F | °C
As of 4:35 AM on Monday 22 Dec 2014 (Local Time) from KAUO Reporting Station
Overcast Overcast  
Wind Chill: 43°   Ceiling: 300
Heat Index: 46°   Visibility: 5mi
Dew Point: 43°   Wind: 7mph
Humidity: 87%   Direction: 100°E
Pressure: 30.01"   Gusts: NA
Location:  32.61°N, 85.48°W
Report Text: KAUO 221035Z AUTO 10006KT 5SM OVC003 08/06 A3001 RMK AO1
Loading
Personal Weather Stations






























Interactive Weather Map New forecast layout! Learn more

10-Day Weather Forecast

Advertisements
Track Severe Weather on mobile